Terminal Aerodrome Forecast
Issued by NWS

Current Version | Previous Version | Text Only | Print | Product List | Glossary On
Versions: 1 2 3 4 5 6 7 8 9 10 11 12 13 14
509
FTUS43 KGRR 121414 AAA
TAFLAN
TAF AMD
KLAN 121414Z 1214/1312 25011KT 1 1/2SM -SN BR OVC025
      TEMPO 1214/1218 3/4SM -SN OVC015
     FM121900 29015G25KT 5SM -SN BLSN OVC035
     FM122200 31015G25KT 6SM -SN OVC035
     FM130500 32010KT 6SM -SN OVC035=

USA.gov is the U.S. government's official web portal to all federal, state and local government web resources and services.